Time;durP1;ratioP1;P1;durP2;ratioP2;P2;SDS_P1;SDS_P2;PMS_P1;PMS_P2;Temp;Humidity;BMP_temperature;BMP_pressure;BME280_temperature;BME280_humidity;BME280_pressure;Samples;Min_cycle;Max_cycle;Signal;HPM_P1;HPM_P2
2022/07/10 00:00:20;;;;;;;9.15;1.40;;;15.90;99.90;;;;;;5074801;28;20097;-52
2022/07/10 00:02:46;;;;;;;4.93;1.05;;;13.70;99.90;;;;;;5075043;28;20087;-52
2022/07/10 00:05:15;;;;;;;10.00;1.58;;;14.60;99.90;;;;;;5076003;28;20123;-51
2022/07/10 00:07:41;;;;;;;8.18;1.13;;;14.30;99.90;;;;;;5076024;28;20945;-53
2022/07/10 00:10:07;;;;;;;14.25;2.15;;;14.90;99.90;;;;;;5076385;28;20640;-52
2022/07/10 00:12:33;;;;;;;10.43;2.00;;;13.60;99.90;;;;;;5076271;28;20047;-53
2022/07/10 00:14:59;;;;;;;9.70;1.50;;;13.60;99.90;;;;;;5075646;28;20051;-53
2022/07/10 00:17:25;;;;;;;8.60;1.90;;;13.70;99.90;;;;;;5074525;28;20040;-53
2022/07/10 00:19:51;;;;;;;9.70;1.67;;;13.60;99.90;;;;;;5075621;28;20046;-54
2022/07/10 00:22:18;;;;;;;7.68;1.42;;;13.60;99.90;;;;;;5075146;28;20077;-52
2022/07/10 00:24:44;;;;;;;6.95;1.20;;;14.10;99.90;;;;;;5075247;28;20040;-51
2022/07/10 00:27:09;;;;;;;7.43;1.13;;;15.40;99.90;;;;;;5074460;28;20523;-53
2022/07/10 00:29:38;;;;;;;9.70;1.40;;;13.60;99.90;;;;;;5074148;28;20044;-53
2022/07/10 00:32:04;;;;;;;9.82;1.63;;;14.80;99.90;;;;;;5074027;28;20072;-51
2022/07/10 00:34:30;;;;;;;10.25;1.40;;;13.40;99.90;;;;;;5074776;28;20165;-51
2022/07/10 00:36:58;;;;;;;7.35;1.02;;;13.50;99.90;;;;;;5073595;28;20069;-49
2022/07/10 00:39:23;;;;;;;8.50;1.38;;;13.40;99.90;;;;;;5074736;28;20035;-52
2022/07/10 00:41:49;;;;;;;12.00;1.75;;;13.30;99.90;;;;;;5075529;28;20176;-51
2022/07/10 00:44:15;;;;;;;8.85;1.80;;;13.40;99.90;;;;;;5073560;28;20047;-48
2022/07/10 00:46:42;;;;;;;13.98;1.67;;;14.60;99.90;;;;;;5075730;28;20074;-49
2022/07/10 00:49:08;;;;;;;7.80;1.13;;;14.30;99.90;;;;;;5075426;28;20136;-54
2022/07/10 00:51:34;;;;;;;7.25;1.70;;;13.50;99.90;;;;;;5074483;28;20044;-48
2022/07/10 00:54:00;;;;;;;10.63;2.10;;;13.30;99.90;;;;;;5074697;28;20056;-52
2022/07/10 00:56:28;;;;;;;11.60;1.90;;;14.50;99.90;;;;;;5074411;28;20105;-48
2022/07/10 00:58:54;;;;;;;7.25;1.30;;;14.10;99.90;;;;;;5075392;28;20040;-54
2022/07/10 01:01:22;;;;;;;14.10;1.92;;;14.70;99.90;;;;;;5075523;28;20068;-48
2022/07/10 01:03:50;;;;;;;11.85;1.70;;;13.90;99.90;;;;;;5073685;28;20132;-48
2022/07/10 01:06:16;;;;;;;12.00;2.00;;;13.30;99.90;;;;;;5073449;28;20508;-50
2022/07/10 01:08:43;;;;;;;11.50;1.83;;;13.40;99.90;;;;;;5074144;28;20346;-47
2022/07/10 01:11:11;;;;;;;8.80;1.20;;;13.30;99.90;;;;;;5075253;28;20036;-49
2022/07/10 01:13:38;;;;;;;9.10;1.50;;;13.30;99.90;;;;;;5074823;28;20032;-50
2022/07/10 01:16:04;;;;;;;13.02;1.70;;;13.90;99.90;;;;;;5075148;28;20036;-53
2022/07/10 01:18:30;;;;;;;8.85;1.50;;;13.30;99.90;;;;;;5074697;28;20036;-52
2022/07/10 01:20:56;;;;;;;7.97;1.40;;;14.40;99.90;;;;;;5074311;28;20090;-48
2022/07/10 01:23:22;;;;;;;10.73;1.73;;;13.20;99.90;;;;;;5073898;28;20032;-48
2022/07/10 01:25:50;;;;;;;7.40;1.30;;;13.20;99.90;;;;;;5073846;28;20040;-43
2022/07/10 01:28:16;;;;;;;16.83;2.67;;;13.80;99.90;;;;;;5074791;28;20186;-43
2022/07/10 01:30:42;;;;;;;8.63;1.90;;;13.40;99.90;;;;;;5073793;28;20588;-45
2022/07/10 01:33:08;;;;;;;6.55;1.13;;;13.70;99.90;;;;;;5073712;28;20040;-44
2022/07/10 01:35:34;;;;;;;8.98;1.40;;;13.10;99.90;;;;;;5072703;28;20130;-42
2022/07/10 01:38:01;;;;;;;6.00;0.90;;;14.00;99.90;;;;;;5073214;28;20055;-44
2022/07/10 01:40:27;;;;;;;8.48;1.00;;;12.90;99.90;;;;;;5074201;28;20039;-44
2022/07/10 01:42:53;;;;;;;5.97;1.35;;;13.00;99.90;;;;;;5074208;28;20580;-48
2022/07/10 01:45:21;;;;;;;7.22;1.20;;;12.90;99.90;;;;;;5073887;28;20046;-43
2022/07/10 01:47:46;;;;;;;6.28;1.45;;;13.00;99.90;;;;;;5073585;28;20032;-42
2022/07/10 01:50:12;;;;;;;6.65;1.50;;;12.90;99.90;;;;;;5073920;28;20035;-43
2022/07/10 01:52:38;;;;;;;8.95;1.08;;;12.80;99.90;;;;;;5073199;28;20073;-44
2022/07/10 01:55:05;;;;;;;5.05;0.93;;;12.90;99.90;;;;;;5073564;28;20091;-43
2022/07/10 01:57:30;;;;;;;6.88;1.02;;;12.90;99.90;;;;;;5073326;28;20634;-43
2022/07/10 01:59:56;;;;;;;7.07;1.10;;;13.30;99.90;;;;;;5073889;28;20036;-44
2022/07/10 02:02:22;;;;;;;6.45;1.10;;;14.00;99.90;;;;;;5074683;28;20032;-44
2022/07/10 02:04:48;;;;;;;8.88;1.27;;;12.70;99.90;;;;;;5073581;28;20051;-44
2022/07/10 02:07:15;;;;;;;7.97;1.13;;;12.80;99.90;;;;;;5071511;28;20050;-43
2022/07/10 02:09:42;;;;;;;7.45;0.95;;;13.00;99.90;;;;;;5073731;28;20119;-44
2022/07/10 02:12:09;;;;;;;5.82;1.10;;;12.70;99.90;;;;;;5073457;28;20036;-44
2022/07/10 02:14:37;;;;;;;8.25;1.25;;;12.80;99.90;;;;;;5074319;28;20713;-46
2022/07/10 02:17:04;;;;;;;7.32;1.30;;;13.10;99.90;;;;;;5072520;28;20539;-44
2022/07/10 02:19:32;;;;;;;8.68;1.17;;;12.70;99.90;;;;;;5073980;28;20032;-42
2022/07/10 02:21:58;;;;;;;9.13;1.27;;;12.60;99.90;;;;;;5073623;28;20079;-43
2022/07/10 02:24:23;;;;;;;8.80;1.25;;;12.70;99.90;;;;;;5073778;28;20083;-44
2022/07/10 02:26:49;;;;;;;8.38;1.38;;;12.70;99.90;;;;;;5072926;28;20067;-43
2022/07/10 02:29:15;;;;;;;8.98;1.17;;;13.00;99.90;;;;;;5073189;28;20114;-43
2022/07/10 02:31:41;;;;;;;8.15;1.60;;;12.80;99.90;;;;;;5073675;28;20112;-44
2022/07/10 02:34:11;;;;;;;7.38;1.42;;;12.60;99.90;;;;;;5077191;28;20038;-44
2022/07/10 02:36:38;;;;;;;7.43;1.23;;;12.90;99.90;;;;;;5076491;28;20059;-44
2022/07/10 02:39:05;;;;;;;10.90;1.20;;;13.80;99.90;;;;;;5076254;28;20066;-44
2022/07/10 02:41:31;;;;;;;7.68;1.60;;;13.00;99.90;;;;;;5076950;28;20050;-42
2022/07/10 02:43:57;;;;;;;4.97;1.45;;;12.90;99.90;;;;;;5077382;28;20032;-45
2022/07/10 02:46:23;;;;;;;10.85;1.60;;;12.90;99.90;;;;;;5077436;28;20378;-42
2022/07/10 02:48:48;;;;;;;8.93;1.27;;;13.00;99.90;;;;;;5077666;28;20051;-43
2022/07/10 02:51:14;;;;;;;8.32;1.40;;;12.90;99.90;;;;;;5075989;28;20102;-42
2022/07/10 02:53:40;;;;;;;10.85;2.08;;;13.00;99.90;;;;;;5076844;28;20048;-46
2022/07/10 02:56:06;;;;;;;6.05;0.85;;;13.20;99.90;;;;;;5075949;28;20078;-44
2022/07/10 02:58:34;;;;;;;11.63;1.50;;;13.10;99.90;;;;;;5076895;28;20534;-42
2022/07/10 03:01:00;;;;;;;11.52;1.80;;;13.30;99.90;;;;;;5074001;28;20137;-42
2022/07/10 03:03:25;;;;;;;12.25;1.98;;;14.00;99.90;;;;;;5075845;28;20560;-43
2022/07/10 03:05:53;;;;;;;9.07;1.63;;;15.20;99.90;;;;;;5074635;28;20081;-44
2022/07/10 03:08:19;;;;;;;9.18;1.00;;;13.30;99.90;;;;;;5075311;28;20032;-45
2022/07/10 03:10:44;;;;;;;8.85;1.40;;;13.20;99.90;;;;;;5077770;28;20791;-47
2022/07/10 03:13:10;;;;;;;10.55;1.40;;;13.30;99.90;;;;;;5074681;28;20067;-43
2022/07/10 03:15:38;;;;;;;6.93;1.08;;;13.60;99.90;;;;;;5076250;28;20040;-45
2022/07/10 03:18:03;;;;;;;5.93;1.27;;;13.40;99.90;;;;;;5076652;28;20043;-48
2022/07/10 03:20:29;;;;;;;8.40;1.63;;;13.50;99.90;;;;;;5075164;28;20054;-46
2022/07/10 03:22:56;;;;;;;10.13;1.20;;;13.30;99.90;;;;;;5075235;28;20036;-47
2022/07/10 03:25:22;;;;;;;8.73;1.20;;;13.40;99.90;;;;;;5074497;28;20040;-45
2022/07/10 03:27:48;;;;;;;10.45;1.20;;;15.40;99.90;;;;;;5075366;28;20932;-48
2022/07/10 03:30:13;;;;;;;8.63;1.30;;;13.60;99.90;;;;;;5075034;28;20044;-46
2022/07/10 03:32:39;;;;;;;8.52;1.42;;;13.70;99.90;;;;;;5073872;28;20067;-48
2022/07/10 03:35:05;;;;;;;6.57;1.35;;;13.80;99.90;;;;;;5074540;28;20054;-45
2022/07/10 03:37:31;;;;;;;10.52;1.33;;;13.90;99.90;;;;;;5075684;28;20068;-43
2022/07/10 03:39:56;;;;;;;9.38;1.42;;;14.10;99.90;;;;;;5076528;28;20036;-45
2022/07/10 03:42:22;;;;;;;9.25;1.70;;;14.20;99.90;;;;;;5076274;28;20035;-45
2022/07/10 03:44:47;;;;;;;9.02;1.40;;;14.10;99.90;;;;;;5072745;28;20055;-42
2022/07/10 03:47:15;;;;;;;7.47;1.13;;;14.90;99.90;;;;;;5075661;28;20043;-44
2022/07/10 03:49:41;;;;;;;12.23;1.67;;;14.60;99.90;;;;;;5075181;28;20036;-44
2022/07/10 03:52:07;;;;;;;5.07;1.27;;;14.00;99.90;;;;;;5075056;28;20047;-44
2022/07/10 03:54:33;;;;;;;9.23;1.38;;;14.00;99.90;;;;;;5075535;28;20571;-43
2022/07/10 03:59:43;;;;;;;10.10;1.80;;;13.80;99.90;;;;;;5074742;28;21455;-44
2022/07/10 04:02:09;;;;;;;9.90;1.73;;;14.10;99.90;;;;;;5073593;28;20500;-43
2022/07/10 04:04:35;;;;;;;11.15;2.13;;;13.90;99.90;;;;;;5074850;28;20040;-47
2022/07/10 04:07:01;;;;;;;10.30;1.60;;;14.10;99.90;;;;;;5075057;28;20050;-47
2022/07/10 04:09:26;;;;;;;8.65;1.42;;;15.10;99.90;;;;;;5074696;28;20040;-44
2022/07/10 04:11:52;;;;;;;8.43;1.67;;;14.20;99.90;;;;;;5075990;28;20048;-47
2022/07/10 04:14:18;;;;;;;10.50;1.58;;;14.20;99.90;;;;;;5074918;28;20446;-48
2022/07/10 04:16:44;;;;;;;13.88;1.60;;;14.20;99.90;;;;;;5074310;28;20048;-47
2022/07/10 04:19:11;;;;;;;11.88;2.00;;;14.50;99.90;;;;;;5073969;28;20042;-44
2022/07/10 04:21:37;;;;;;;9.15;1.55;;;15.20;99.90;;;;;;5072964;28;20627;-45
2022/07/10 04:24:04;;;;;;;12.32;1.73;;;14.30;99.90;;;;;;5072811;28;20036;-43
2022/07/10 04:26:29;;;;;;;10.82;1.88;;;14.20;99.90;;;;;;5072603;28;20074;-47
2022/07/10 04:28:55;;;;;;;9.48;1.98;;;14.80;99.90;;;;;;5074125;28;20571;-46
2022/07/10 04:31:21;;;;;;;8.45;2.58;;;14.60;99.90;;;;;;5074200;28;20039;-46
2022/07/10 04:33:46;;;;;;;11.43;1.52;;;15.40;99.90;;;;;;5075477;28;20045;-47
2022/07/10 04:36:12;;;;;;;13.60;1.77;;;14.50;99.90;;;;;;5072925;28;20052;-45
2022/07/10 04:38:38;;;;;;;11.70;1.70;;;14.40;99.90;;;;;;5073700;28;20051;-45
2022/07/10 04:41:04;;;;;;;12.52;1.95;;;16.60;99.90;;;;;;5074368;28;20047;-46
2022/07/10 04:43:31;;;;;;;9.07;1.55;;;14.50;99.90;;;;;;5074066;28;20032;-47
2022/07/10 04:45:57;;;;;;;8.30;1.80;;;14.40;99.90;;;;;;5074603;28;20040;-45
2022/07/10 04:48:23;;;;;;;11.82;1.88;;;14.40;99.90;;;;;;5074146;28;20047;-47
2022/07/10 04:50:48;;;;;;;10.30;1.55;;;15.80;99.90;;;;;;5074595;28;20044;-46
2022/07/10 04:53:16;;;;;;;11.23;2.05;;;14.50;99.90;;;;;;5074266;28;20036;-47
2022/07/10 04:55:42;;;;;;;11.73;1.92;;;14.70;99.90;;;;;;5073722;28;20059;-46
2022/07/10 04:58:09;;;;;;;14.40;2.35;;;15.20;99.90;;;;;;5075479;28;20808;-46
2022/07/10 05:00:34;;;;;;;13.18;2.13;;;14.40;99.90;;;;;;5073702;28;20123;-45
2022/07/10 05:03:00;;;;;;;12.20;2.15;;;16.00;99.90;;;;;;5055790;28;20040;-47
2022/07/10 05:05:26;;;;;;;10.98;1.92;;;14.50;99.90;;;;;;5073299;28;20046;-48
2022/07/10 05:07:51;;;;;;;11.40;1.80;;;14.50;99.90;;;;;;5074332;28;20048;-44
2022/07/10 05:10:17;;;;;;;11.55;1.45;;;14.50;99.90;;;;;;5073160;28;20527;-43
2022/07/10 05:12:43;;;;;;;11.07;1.90;;;14.40;99.90;;;;;;5075295;28;20115;-43
2022/07/10 05:15:09;;;;;;;13.57;1.63;;;15.30;99.90;;;;;;5074224;28;20533;-44
2022/07/10 05:17:37;;;;;;;7.70;1.60;;;14.50;99.90;;;;;;5073919;28;20565;-42
2022/07/10 05:20:03;;;;;;;14.75;1.95;;;14.50;99.90;;;;;;5073666;28;20031;-43
2022/07/10 05:22:30;;;;;;;15.70;2.65;;;14.80;99.90;;;;;;5073805;28;20078;-44
2022/07/10 05:24:58;;;;;;;14.95;1.90;;;14.60;99.90;;;;;;5073411;28;20036;-45
2022/07/10 05:27:24;;;;;;;13.32;3.15;;;15.00;99.90;;;;;;5072964;28;20035;-43
2022/07/10 05:29:50;;;;;;;5.90;1.38;;;14.60;99.90;;;;;;5074208;28;20036;-44
2022/07/10 05:32:17;;;;;;;10.27;1.70;;;14.60;99.90;;;;;;5072970;28;20028;-46
2022/07/10 05:34:43;;;;;;;9.00;1.90;;;15.90;99.90;;;;;;5072802;28;20139;-44
2022/07/10 05:37:09;;;;;;;6.75;1.60;;;14.80;99.90;;;;;;5073545;28;20566;-47
2022/07/10 05:39:36;;;;;;;11.45;1.70;;;14.70;99.90;;;;;;5072508;28;20511;-44
2022/07/10 05:42:02;;;;;;;8.45;1.60;;;14.80;99.90;;;;;;5073853;28;20625;-46
2022/07/10 05:44:28;;;;;;;6.35;1.40;;;14.80;99.90;;;;;;5073830;28;20079;-43
2022/07/10 05:46:54;;;;;;;10.18;1.65;;;14.70;99.90;;;;;;5072556;28;20072;-43
2022/07/10 05:49:19;;;;;;;10.75;1.50;;;15.50;99.90;;;;;;5073461;28;20118;-44
2022/07/10 05:51:45;;;;;;;8.90;1.80;;;14.80;99.90;;;;;;5073324;28;20036;-44
2022/07/10 05:54:11;;;;;;;9.10;1.88;;;15.40;99.90;;;;;;5072549;28;20051;-43
2022/07/10 05:56:37;;;;;;;9.38;2.25;;;14.70;99.90;;;;;;5073929;28;20046;-42
2022/07/10 05:59:02;;;;;;;8.32;1.65;;;14.90;99.90;;;;;;5073144;28;20036;-43
2022/07/10 06:01:28;;;;;;;12.18;1.27;;;14.80;99.90;;;;;;5072510;28;20403;-44
2022/07/10 06:03:56;;;;;;;5.97;1.70;;;15.70;99.90;;;;;;5073980;28;20519;-46
2022/07/10 06:06:23;;;;;;;8.20;1.65;;;15.60;99.90;;;;;;5074004;28;20047;-45
2022/07/10 06:08:49;;;;;;;7.55;1.60;;;15.80;99.90;;;;;;5077364;28;20039;-43
2022/07/10 06:11:16;;;;;;;9.93;1.52;;;15.00;99.90;;;;;;5077580;28;20713;-45
2022/07/10 06:13:43;;;;;;;6.57;1.50;;;14.80;99.90;;;;;;5077822;28;20036;-44
2022/07/10 06:16:09;;;;;;;9.40;1.83;;;15.70;99.90;;;;;;5076345;28;22230;-44
2022/07/10 06:18:35;;;;;;;6.70;1.35;;;16.60;99.90;;;;;;5077314;28;20040;-45
2022/07/10 06:21:00;;;;;;;6.90;1.30;;;14.90;99.90;;;;;;5074150;28;20225;-45
2022/07/10 06:23:26;;;;;;;6.10;1.33;;;15.00;99.90;;;;;;5074905;28;20102;-44
2022/07/10 06:25:52;;;;;;;6.25;1.40;;;16.90;99.90;;;;;;5077222;28;20037;-44
2022/07/10 06:28:18;;;;;;;6.05;1.17;;;16.10;99.90;;;;;;5077821;28;20473;-43
2022/07/10 06:30:46;;;;;;;7.95;1.10;;;15.70;99.90;;;;;;5076024;28;20040;-44
2022/07/10 06:33:11;;;;;;;6.60;0.93;;;15.00;99.90;;;;;;5076541;28;20036;-46
2022/07/10 06:35:39;;;;;;;6.03;0.90;;;15.20;99.90;;;;;;5076889;28;20136;-44
2022/07/10 06:38:05;;;;;;;6.00;1.48;;;15.40;99.90;;;;;;5076241;28;21770;-47
2022/07/10 06:40:35;;;;;;;5.72;1.05;;;15.20;99.90;;;;;;5077224;28;20038;-43
2022/07/10 06:43:01;;;;;;;5.68;1.33;;;16.20;99.90;;;;;;5077718;28;20048;-46
2022/07/10 06:45:27;;;;;;;7.65;1.40;;;16.40;99.90;;;;;;5075814;28;20054;-45
2022/07/10 06:47:56;;;;;;;5.65;0.88;;;15.60;99.90;;;;;;5076041;28;20064;-43
2022/07/10 06:50:23;;;;;;;7.68;1.00;;;15.60;99.90;;;;;;5075962;28;20593;-50
2022/07/10 06:52:50;;;;;;;5.55;1.00;;;15.50;99.90;;;;;;5076990;28;20044;-46
2022/07/10 06:55:17;;;;;;;6.68;1.10;;;15.20;99.90;;;;;;5076113;28;20047;-44
2022/07/10 06:57:45;;;;;;;7.75;1.30;;;14.50;99.90;;;;;;5075294;28;20047;-44
2022/07/10 07:00:11;;;;;;;6.07;1.40;;;15.20;99.90;;;;;;5075962;28;20043;-45
2022/07/10 07:02:37;;;;;;;6.18;1.50;;;15.30;99.90;;;;;;5076541;28;20036;-46
2022/07/10 07:05:03;;;;;;;5.60;1.00;;;16.00;99.90;;;;;;5075017;28;20040;-44
2022/07/10 07:07:29;;;;;;;8.05;1.30;;;15.10;99.90;;;;;;5074323;28;20421;-48
2022/07/10 07:09:56;;;;;;;6.95;1.00;;;15.30;99.90;;;;;;5075504;28;20708;-42
2022/07/10 07:12:22;;;;;;;5.55;1.10;;;15.30;99.90;;;;;;5076989;28;20568;-46
2022/07/10 07:14:47;;;;;;;3.30;0.80;;;14.60;99.90;;;;;;5074997;28;20072;-44
2022/07/10 07:17:21;;;;;;;5.10;0.93;;;15.50;99.90;;;;;;5074721;28;20067;-44
2022/07/10 07:25:16;;;;;;;6.18;1.10;;;15.80;99.90;;;;;;5074086;28;20070;-48
2022/07/10 07:27:42;;;;;;;8.45;1.42;;;17.80;99.90;;;;;;5076564;28;20275;-47
2022/07/10 07:30:10;;;;;;;5.22;0.90;;;16.00;99.90;;;;;;5076365;28;20036;-45
2022/07/10 07:32:38;;;;;;;4.50;1.10;;;15.90;99.90;;;;;;5075458;28;21177;-45
2022/07/10 07:35:05;;;;;;;9.07;1.30;;;16.70;99.90;;;;;;5075077;28;20044;-43
2022/07/10 07:37:45;;;;;;;7.25;1.50;;;15.70;99.90;;;;;;5076041;28;20047;-43
2022/07/10 07:40:13;;;;;;;9.77;1.50;;;17.80;99.90;;;;;;5075853;28;20071;-43
2022/07/10 07:42:40;;;;;;;8.90;1.05;;;17.30;99.90;;;;;;5076439;28;20034;-47
2022/07/10 07:45:09;;;;;;;15.60;1.38;;;13.80;99.90;;;;;;5075363;28;20065;-43
2022/07/10 07:47:46;;;;;;;6.18;1.20;;;15.50;99.90;;;;;;5073586;28;20412;-44
2022/07/10 07:50:14;;;;;;;5.00;1.10;;;15.50;99.90;;;;;;5074907;28;20040;-45
2022/07/10 07:52:39;;;;;;;7.07;1.23;;;15.30;99.90;;;;;;5075701;28;20055;-45
2022/07/10 07:55:06;;;;;;;7.35;1.35;;;15.60;99.90;;;;;;5075665;28;20611;-47
2022/07/10 07:57:34;;;;;;;8.30;1.42;;;15.50;99.90;;;;;;5075979;28;20526;-47
2022/07/10 07:59:59;;;;;;;4.30;1.05;;;16.80;99.90;;;;;;5074853;28;20499;-44
2022/07/10 08:02:25;;;;;;;7.72;1.55;;;15.60;99.90;;;;;;5074532;28;20586;-44
2022/07/10 08:04:52;;;;;;;11.13;1.67;;;16.10;99.90;;;;;;5074183;28;20048;-43
2022/07/10 08:07:18;;;;;;;11.48;2.05;;;15.30;99.90;;;;;;5075113;28;20603;-45
2022/07/10 08:09:44;;;;;;;6.82;1.10;;;15.40;99.90;;;;;;5076000;28;20039;-47
2022/07/10 08:12:10;;;;;;;8.43;1.65;;;15.30;99.90;;;;;;5075887;28;20437;-44
2022/07/10 08:14:36;;;;;;;7.25;1.50;;;16.30;99.90;;;;;;5074707;28;20051;-44
2022/07/10 08:17:01;;;;;;;8.57;1.70;;;15.30;99.90;;;;;;5073656;28;20039;-47
2022/07/10 08:19:27;;;;;;;7.47;1.33;;;15.20;99.90;;;;;;5076070;28;20028;-48
2022/07/10 08:21:53;;;;;;;8.68;1.95;;;15.20;99.90;;;;;;5074993;28;20070;-49
2022/07/10 08:24:18;;;;;;;3.90;1.13;;;15.10;99.90;;;;;;5074583;28;20534;-46
2022/07/10 08:26:46;;;;;;;8.68;1.58;;;15.20;99.90;;;;;;5074397;28;20609;-47
2022/07/10 08:29:12;;;;;;;8.55;2.10;;;15.00;99.90;;;;;;5075577;28;20501;-46
2022/07/10 08:31:39;;;;;;;9.45;1.98;;;15.00;99.90;;;;;;5072686;28;20058;-48
2022/07/10 08:34:07;;;;;;;8.90;1.50;;;15.00;99.90;;;;;;5074608;28;20036;-44
2022/07/10 08:36:32;;;;;;;10.75;1.90;;;16.20;99.90;;;;;;5074278;28;20032;-46
2022/07/10 08:38:58;;;;;;;11.65;2.10;;;15.20;99.90;;;;;;5073385;28;20092;-45
2022/07/10 08:41:31;;;;;;;7.45;1.67;;;14.90;99.90;;;;;;5074292;28;20048;-47
2022/07/10 08:43:56;;;;;;;10.13;1.90;;;15.10;99.90;;;;;;5073485;28;20409;-44
2022/07/10 08:46:23;;;;;;;9.27;2.40;;;16.00;99.90;;;;;;5073270;28;20036;-45
2022/07/10 08:48:53;;;;;;;8.77;1.98;;;15.60;99.90;;;;;;5073696;28;20040;-43
2022/07/10 08:51:30;;;;;;;12.18;2.22;;;16.00;99.90;;;;;;5073534;28;20042;-45
2022/07/10 08:54:00;;;;;;;6.78;1.90;;;15.10;99.90;;;;;;5071047;28;20048;-46
2022/07/10 08:56:26;;;;;;;7.00;1.60;;;16.80;99.90;;;;;;5074735;28;20854;-46
2022/07/10 08:58:53;;;;;;;10.85;2.28;;;13.40;99.90;;;;;;5073997;28;20100;-48
2022/07/10 09:01:23;;;;;;;6.47;1.63;;;15.00;99.90;;;;;;5073556;28;20053;-48
2022/07/10 09:03:52;;;;;;;8.27;2.00;;;16.40;99.90;;;;;;5072848;28;20043;-45
2022/07/10 09:06:18;;;;;;;6.63;1.95;;;15.10;99.90;;;;;;5072883;28;20047;-46
2022/07/10 09:09:04;;;;;;;7.93;1.88;;;15.50;99.90;;;;;;5074527;28;20036;-46
2022/07/10 09:11:31;;;;;;;10.70;2.25;;;15.10;99.90;;;;;;5073962;28;20043;-47
2022/07/10 09:14:04;;;;;;;11.13;2.22;;;15.40;99.90;;;;;;5074324;28;20032;-45
2022/07/10 09:16:35;;;;;;;8.57;1.75;;;15.20;99.90;;;;;;5072923;28;20043;-48
2022/07/10 09:19:27;;;;;;;7.72;2.15;;;17.60;99.90;;;;;;5074371;28;20043;-45
2022/07/10 09:21:55;;;;;;;5.32;1.60;;;15.20;99.90;;;;;;5073329;28;20036;-47
2022/07/10 09:24:21;;;;;;;8.07;2.08;;;15.40;99.90;;;;;;5072429;28;20047;-49
2022/07/10 09:27:03;;;;;;;5.85;1.95;;;15.40;99.90;;;;;;5073245;28;20047;-48
2022/07/10 09:29:29;;;;;;;9.03;1.87;;;15.50;99.90;;;;;;5072624;28;20036;-46
2022/07/10 09:32:03;;;;;;;7.32;1.98;;;15.60;99.90;;;;;;5072955;28;20376;-48
2022/07/10 09:34:36;;;;;;;7.10;1.63;;;15.60;99.90;;;;;;5072940;28;20047;-46
2022/07/10 09:37:23;;;;;;;13.50;2.28;;;15.70;99.90;;;;;;5073108;28;20640;-47
2022/07/10 09:39:59;;;;;;;8.30;1.65;;;15.70;99.90;;;;;;5071693;28;20048;-44
2022/07/10 09:42:34;;;;;;;4.32;1.60;;;15.80;99.90;;;;;;5076521;28;20451;-47
2022/07/10 09:45:16;;;;;;;8.30;1.70;;;15.80;99.90;;;;;;5076951;28;20128;-44
2022/07/10 09:47:43;;;;;;;7.10;1.65;;;16.20;99.90;;;;;;5076365;28;20054;-45
2022/07/10 09:50:33;;;;;;;7.53;1.55;;;15.90;99.90;;;;;;5077035;28;20044;-46
2022/07/10 09:53:01;;;;;;;6.53;1.50;;;16.00;99.90;;;;;;5077532;28;20492;-47
2022/07/10 09:55:33;;;;;;;7.38;1.90;;;15.90;99.90;;;;;;5075131;28;20508;-48
2022/07/10 09:58:06;;;;;;;7.30;1.63;;;17.10;99.90;;;;;;5077166;28;20055;-45
2022/07/10 10:00:33;;;;;;;6.78;1.63;;;17.90;99.90;;;;;;5076889;28;20044;-46
2022/07/10 10:03:04;;;;;;;7.57;1.60;;;16.30;99.90;;;;;;5077961;28;20040;-47
2022/07/10 10:05:43;;;;;;;11.77;2.03;;;16.70;99.90;;;;;;5077364;28;20067;-46
2022/07/10 10:08:28;;;;;;;5.93;1.70;;;16.20;99.90;;;;;;5077852;28;20086;-48
2022/07/10 10:10:57;;;;;;;7.32;1.80;;;16.30;99.90;;;;;;5076743;28;20219;-45
2022/07/10 10:13:28;;;;;;;11.27;1.95;;;16.20;99.90;;;;;;5076921;28;20528;-44
2022/07/10 10:15:54;;;;;;;9.95;2.03;;;16.10;99.90;;;;;;5075961;28;20090;-45
2022/07/10 10:18:22;;;;;;;7.72;1.90;;;16.40;99.90;;;;;;5077044;28;20350;-46
2022/07/10 10:20:49;;;;;;;12.60;2.33;;;16.50;99.90;;;;;;5077352;28;20032;-45
2022/07/10 10:23:22;;;;;;;9.18;1.90;;;16.60;99.90;;;;;;5076546;28;20458;-48
2022/07/10 10:25:55;;;;;;;9.23;2.08;;;16.70;99.90;;;;;;5076576;28;20131;-46
2022/07/10 10:28:23;;;;;;;8.13;2.15;;;16.90;99.90;;;;;;5076188;28;20040;-48
2022/07/10 10:30:51;;;;;;;6.20;2.22;;;18.60;99.90;;;;;;5077571;28;20039;-48
2022/07/10 10:33:55;;;;;;;15.35;5.25;;;17.40;99.90;;;;;;5077487;28;20044;-47
2022/07/10 10:36:45;;;;;;;31.60;20.15;;;17.70;99.90;;;;;;4993415;28;20861;-46
2022/07/10 10:39:21;;;;;;;7.43;1.88;;;18.80;99.90;;;;;;4957394;28;20092;-45
2022/07/10 10:41:48;;;;;;;7.70;2.00;;;19.20;99.90;;;;;;4956882;28;20476;-48
2022/07/10 10:44:16;;;;;;;33.97;14.10;;;19.90;99.90;;;;;;4959445;28;20054;-48
2022/07/10 10:47:01;;;;;;;12.45;2.72;;;18.20;99.90;;;;;;4956434;28;20038;-47
2022/07/10 10:49:50;;;;;;;10.20;3.63;;;17.80;99.90;;;;;;4940040;28;20201;-44
2022/07/10 10:52:18;;;;;;;8.32;1.70;;;17.60;99.90;;;;;;4954164;28;20038;-45
2022/07/10 10:54:56;;;;;;;13.50;4.85;;;17.50;99.90;;;;;;4956103;28;20063;-47
2022/07/10 10:57:31;;;;;;;7.38;2.22;;;17.20;99.90;;;;;;4955843;28;20511;-48
2022/07/10 10:59:59;;;;;;;14.07;2.53;;;17.20;99.90;;;;;;4954607;28;20080;-48
2022/07/10 11:02:30;;;;;;;11.68;1.88;;;18.20;99.90;;;;;;4954788;28;20042;-43
2022/07/10 11:05:22;;;;;;;6.38;1.83;;;17.60;99.90;;;;;;4954002;28;20358;-45
2022/07/10 11:07:54;;;;;;;;;;;17.30;99.90;;;;;;4939003;28;20643;-45
2022/07/10 11:10:35;;;;;;;6.20;1.58;;;17.20;99.90;;;;;;4959162;28;20330;-48
2022/07/10 11:13:14;;;;;;;5.25;1.95;;;17.10;99.90;;;;;;4995761;28;20050;-47
2022/07/10 11:15:40;;;;;;;7.00;1.73;;;17.00;99.90;;;;;;5000780;28;20111;-48
2022/07/10 11:18:08;;;;;;;6.53;2.60;;;17.00;99.90;;;;;;4996322;28;20406;-47
2022/07/10 11:20:39;;;;;;;5.00;2.00;;;17.10;99.90;;;;;;5011203;28;20254;-47
2022/07/10 11:23:19;;;;;;;5.30;1.27;;;16.80;99.90;;;;;;5012198;28;20600;-48
2022/07/10 11:26:01;;;;;;;7.63;1.23;;;17.20;99.90;;;;;;5013220;28;20076;-48
2022/07/10 11:28:43;;;;;;;6.72;1.50;;;17.10;99.90;;;;;;5011644;28;20064;-46
2022/07/10 11:31:11;;;;;;;4.88;1.58;;;16.90;99.90;;;;;;5012308;28;20046;-45
2022/07/10 11:33:46;;;;;;;8.98;2.42;;;16.80;99.90;;;;;;5014022;28;20591;-46
2022/07/10 11:36:21;;;;;;;7.55;1.90;;;18.90;99.90;;;;;;5011961;28;20132;-44
2022/07/10 11:38:48;;;;;;;8.38;2.42;;;16.40;99.90;;;;;;5013105;28;20067;-43
2022/07/10 11:41:22;;;;;;;8.20;3.10;;;16.70;99.90;;;;;;5013196;28;20038;-44
2022/07/10 11:43:53;;;;;;;22.77;14.45;;;16.50;99.90;;;;;;5017076;28;20505;-42
2022/07/10 11:46:23;;;;;;;7.78;2.22;;;16.30;99.90;;;;;;5074825;28;20518;-44
2022/07/10 11:48:52;;;;;;;6.97;2.10;;;16.30;99.90;;;;;;5074827;28;20040;-44
2022/07/10 11:51:30;;;;;;;8.63;2.38;;;18.20;99.90;;;;;;5076505;28;20036;-43
2022/07/10 11:54:22;;;;;;;9.27;2.35;;;16.40;99.90;;;;;;5074538;28;20050;-44
2022/07/10 11:56:53;;;;;;;11.13;3.70;;;16.40;99.90;;;;;;5071543;28;20044;-43
2022/07/10 11:59:24;;;;;;;10.45;2.70;;;16.20;99.90;;;;;;5073348;28;20338;-43
2022/07/10 12:01:56;;;;;;;8.50;2.50;;;18.50;99.90;;;;;;5074784;28;20476;-43
2022/07/10 12:04:26;;;;;;;;;;;16.50;99.90;;;;;;5074446;28;20130;-43
2022/07/10 12:06:53;;;;;;;7.28;1.90;;;16.40;99.90;;;;;;5074968;28;19934;-45
2022/07/10 12:09:23;;;;;;;7.28;2.17;;;17.70;99.90;;;;;;5074366;28;20039;-44
2022/07/10 12:11:59;;;;;;;12.65;2.00;;;17.50;99.90;;;;;;5073357;28;20127;-47
2022/07/10 12:14:26;;;;;;;6.63;2.25;;;16.80;99.90;;;;;;5075399;28;20048;-46
2022/07/10 12:16:53;;;;;;;7.00;2.20;;;16.80;99.90;;;;;;5075047;28;20032;-46
2022/07/10 12:19:22;;;;;;;9.07;2.17;;;17.30;99.90;;;;;;5073996;28;20114;-48
2022/07/10 12:21:48;;;;;;;6.80;1.70;;;18.50;99.90;;;;;;5073798;28;20036;-45
2022/07/10 12:24:23;;;;;;;7.57;1.77;;;16.90;99.90;;;;;;5075434;28;20111;-47
2022/07/10 12:26:49;;;;;;;8.35;2.30;;;18.60;99.90;;;;;;5074997;28;20032;-47
2022/07/10 12:29:22;;;;;;;6.43;1.80;;;18.80;99.90;;;;;;5075714;28;20040;-48
2022/07/10 12:31:57;;;;;;;8.50;2.00;;;16.40;99.90;;;;;;5074285;28;20097;-48
2022/07/10 12:34:50;;;;;;;7.53;1.63;;;17.30;99.90;;;;;;5074759;28;20039;-49
2022/07/10 12:37:16;;;;;;;7.40;1.75;;;16.70;99.90;;;;;;5073157;28;20450;-48
2022/07/10 12:39:49;;;;;;;8.55;2.10;;;16.70;99.90;;;;;;5073585;28;20058;-48
2022/07/10 12:42:28;;;;;;;8.95;1.83;;;16.80;99.90;;;;;;5073177;28;20047;-48
2022/07/10 12:45:12;;;;;;;8.32;1.48;;;16.70;99.90;;;;;;5075666;28;20066;-48
2022/07/10 12:47:45;;;;;;;6.10;1.33;;;16.50;99.90;;;;;;5073625;28;20424;-44
2022/07/10 12:50:12;;;;;;;8.27;1.80;;;16.50;99.90;;;;;;5075872;28;20043;-46
2022/07/10 12:52:38;;;;;;;9.43;2.08;;;16.50;99.90;;;;;;5055283;28;20142;-48
2022/07/10 12:55:25;;;;;;;11.30;2.22;;;16.10;99.90;;;;;;5074570;28;20087;-47
2022/07/10 12:57:51;;;;;;;6.30;1.60;;;16.30;99.90;;;;;;5073594;28;20052;-45
2022/07/10 13:00:27;;;;;;;5.60;1.58;;;16.40;99.90;;;;;;5072054;28;20349;-46